Time;durP1;ratioP1;P1;durP2;ratioP2;P2;SDS_P1;SDS_P2;PMS_P1;PMS_P2;Temp;Humidity;BMP_temperature;BMP_pressure;BME280_temperature;BME280_humidity;BME280_pressure;Samples;Min_cycle;Max_cycle;Signal;HPM_P1;HPM_P2
2021/07/11 00:01:38;;;;;;;4.50;3.60;;;;;;;14.39;82.00;100779.03;93176;1209;75204;-58
2021/07/11 00:03:46;;;;;;;4.40;3.70;;;;;;;14.40;81.93;100777.97;93203;1209;80467;-59
2021/07/11 00:05:54;;;;;;;5.80;3.70;;;;;;;14.39;81.89;100774.44;93180;1208;67988;-58
2021/07/11 00:08:02;;;;;;;4.60;3.10;;;;;;;14.33;81.94;100772.54;93184;1207;69074;-58
2021/07/11 00:10:13;;;;;;;4.00;3.30;;;;;;;14.26;81.97;100768.06;93166;1214;86604;-58
2021/07/11 00:12:21;;;;;;;6.10;3.60;;;;;;;14.19;82.04;100768.06;93176;1214;75486;-58
2021/07/11 00:14:29;;;;;;;6.60;3.80;;;;;;;14.14;81.90;100775.99;93141;1214;81767;-58
2021/07/11 00:16:37;;;;;;;4.90;3.90;;;;;;;14.14;81.86;100775.99;93138;1214;67270;-58
2021/07/11 00:18:46;;;;;;;5.30;3.60;;;;;;;14.13;81.88;100775.15;93147;1214;69684;-59
2021/07/11 00:20:53;;;;;;;4.40;3.40;;;;;;;14.17;82.05;100781.03;93163;1214;86493;-59
2021/07/11 00:23:01;;;;;;;4.10;3.70;;;;;;;14.17;81.99;100781.84;93134;1209;74423;-59
2021/07/11 00:25:13;;;;;;;5.30;3.60;;;;;;;14.14;82.05;100779.55;93157;1209;81080;-59
2021/07/11 00:27:21;;;;;;;5.10;4.00;;;;;;;14.08;82.09;100790.38;93174;1214;66721;-59
2021/07/11 00:29:29;;;;;;;6.60;4.70;;;;;;;14.03;82.15;100790.16;93195;1203;69237;-59
2021/07/11 00:31:37;;;;;;;6.10;4.20;;;;;;;14.02;82.17;100785.75;93140;1209;87784;-59
2021/07/11 00:33:45;;;;;;;9.70;4.70;;;;;;;14.04;82.26;100787.22;93163;1209;75321;-59
2021/07/11 00:35:52;;;;;;;6.80;4.70;;;;;;;14.03;82.35;100788.28;93150;1209;80005;-59
2021/07/11 00:38:00;;;;;;;6.30;5.10;;;;;;;14.05;82.41;100785.35;93144;1209;66710;-68
2021/07/11 00:40:13;;;;;;;7.40;5.40;;;;;;;14.03;82.57;100787.44;93159;1208;68934;-69
2021/07/11 00:42:23;;;;;;;6.70;5.40;;;;;;;14.00;82.46;100785.13;93169;1209;85969;-60
2021/07/11 00:44:34;;;;;;;5.50;4.70;;;;;;;14.00;82.52;100790.55;93169;1208;75817;-60
2021/07/11 00:46:44;;;;;;;9.00;5.20;;;;;;;13.99;82.56;100797.86;93162;1209;81111;-61
2021/07/11 00:48:52;;;;;;;6.50;5.90;;;;;;;13.98;82.54;100789.93;93170;1209;65897;-61
2021/07/11 00:51:00;;;;;;;6.80;5.40;;;;;;;14.01;82.40;100792.22;93140;1209;69520;-59
2021/07/11 00:53:10;;;;;;;6.70;5.40;;;;;;;14.00;82.50;100791.41;93102;1214;87600;-71
2021/07/11 00:55:17;;;;;;;5.70;5.20;;;;;;;13.99;82.46;100788.87;93165;1208;75208;-72
2021/07/11 00:57:25;;;;;;;6.20;4.50;;;;;;;13.99;82.53;100794.30;93175;1209;80877;-61
2021/07/11 00:59:33;;;;;;;5.60;5.00;;;;;;;14.01;82.64;100784.06;93377;1160;65382;-61
2021/07/11 01:01:48;;;;;;;5.90;5.20;;;;;;;14.02;82.67;100789.31;93139;1214;70245;-61
2021/07/11 01:04:02;;;;;;;7.50;5.60;;;;;;;14.00;82.48;100790.55;93169;1209;86875;-60
2021/07/11 01:06:11;;;;;;;6.00;5.00;;;;;;;13.93;82.49;100786.95;93141;1206;74310;-60
2021/07/11 01:08:30;;;;;;;6.90;5.10;;;;;;;13.88;82.54;100792.16;93127;1208;80967;-61
2021/07/11 01:10:48;;;;;;;9.50;5.40;;;;;;;13.88;82.68;100790.28;93172;1209;68429;-60
2021/07/11 01:12:58;;;;;;;7.60;5.40;;;;;;;13.92;82.80;100788.02;93166;1207;68607;-61
2021/07/11 01:15:09;;;;;;;7.40;6.00;;;;;;;13.98;82.81;100795.36;93219;1209;86520;-61
2021/07/11 01:17:19;;;;;;;6.10;5.30;;;;;;;14.01;82.96;100793.05;93212;1209;74347;-60
2021/07/11 01:19:54;;;;;;;7.70;5.30;;;;;;;14.00;83.08;100790.55;93232;1210;81164;-61
2021/07/11 01:22:07;;;;;;;10.60;5.80;;;;;;;14.01;82.63;100792.22;92897;1208;68581;-61
2021/07/11 01:24:25;;;;;;;7.20;5.80;;;;;;;14.02;82.67;100788.47;93149;1209;69080;-72
2021/07/11 01:26:36;;;;;;;8.80;5.40;;;;;;;14.04;82.75;100791.81;93188;1209;87561;-72
2021/07/11 01:28:44;;;;;;;7.30;5.90;;;;;;;14.02;82.51;100799.33;92974;1209;74983;-71
2021/07/11 01:30:57;;;;;;;7.70;5.30;;;;;;;13.97;82.58;100799.95;93129;1209;81032;-72
2021/07/11 01:33:07;;;;;;;8.50;5.50;;;;;;;13.97;82.39;100807.25;93140;1208;68319;-72
2021/07/11 01:35:19;;;;;;;9.10;5.10;;;;;;;13.94;82.54;100794.92;93244;1205;68799;-72
2021/07/11 01:37:27;;;;;;;6.00;5.20;;;;;;;13.93;82.39;100800.53;93222;1208;85415;-72
2021/07/11 01:39:35;;;;;;;7.90;5.00;;;;;;;13.91;82.57;100798.03;93213;1208;74297;-61
2021/07/11 01:41:45;;;;;;;9.20;5.30;;;;;;;13.83;82.43;100800.07;93139;1206;82424;-61
2021/07/11 01:43:56;;;;;;;7.10;4.50;;;;;;;13.76;82.56;100802.73;93218;1210;67179;-71
2021/07/11 01:46:07;;;;;;;7.90;4.90;;;;;;;13.72;82.45;100804.20;93170;1208;67664;-72
2021/07/11 01:48:16;;;;;;;5.70;4.80;;;;;;;13.70;82.56;100805.44;93176;1208;86194;-62
2021/07/11 01:50:25;;;;;;;7.30;4.40;;;;;;;13.67;82.59;100806.67;93207;1209;74004;-61
2021/07/11 01:52:34;;;;;;;6.80;4.80;;;;;;;13.67;82.50;100805.83;93105;1208;81765;-61
2021/07/11 01:54:42;;;;;;;9.30;4.90;;;;;;;13.67;82.60;100806.67;93204;1209;65957;-71
2021/07/11 01:56:50;;;;;;;5.60;5.10;;;;;;;13.69;82.71;100810.02;93194;1203;68430;-70
2021/07/11 01:58:58;;;;;;;8.20;5.60;;;;;;;13.70;82.59;100795.42;93180;1209;86725;-59
2021/07/11 02:01:10;;;;;;;5.80;4.80;;;;;;;13.70;82.67;100805.44;93194;1209;73984;-60
2021/07/11 02:03:24;;;;;;;6.80;5.00;;;;;;;13.60;82.76;100801.19;93116;1209;82258;-68
2021/07/11 02:05:32;;;;;;;8.20;5.50;;;;;;;13.63;82.80;100799.95;93139;1209;68270;-68
2021/07/11 02:07:41;;;;;;;4.90;4.40;;;;;;;13.63;82.89;100805.38;93218;1209;68596;-68
2021/07/11 02:09:48;;;;;;;5.80;4.60;;;;;;;13.63;82.74;100799.11;92946;1206;85865;-68
2021/07/11 02:11:57;;;;;;;5.30;4.80;;;;;;;13.63;82.81;100804.53;93159;1208;74722;-68
2021/07/11 02:14:13;;;;;;;6.50;4.60;;;;;;;13.63;82.75;100809.97;93150;1209;81705;-68
2021/07/11 02:16:30;;;;;;;7.90;4.90;;;;;;;13.63;82.65;100808.09;93144;1209;66036;-68
2021/07/11 02:18:40;;;;;;;6.50;5.10;;;;;;;13.63;82.69;100805.38;93150;1209;68004;-60
2021/07/11 02:20:52;;;;;;;7.90;5.00;;;;;;;13.56;82.64;100804.52;93182;1211;85600;-60
2021/07/11 02:23:01;;;;;;;6.70;4.90;;;;;;;13.49;82.52;100803.61;93171;1208;73971;-60
2021/07/11 02:25:11;;;;;;;6.20;5.30;;;;;;;13.43;82.72;100807.14;93156;1209;81682;-60
2021/07/11 02:27:22;;;;;;;6.80;4.60;;;;;;;13.41;82.99;100804.61;92977;1209;66128;-60
2021/07/11 02:29:35;;;;;;;5.70;5.10;;;;;;;13.39;82.91;100803.98;93184;1208;69302;-68
2021/07/11 02:31:46;;;;;;;5.70;5.00;;;;;;;13.38;82.97;100813.14;93130;1209;86850;-68
2021/07/11 02:33:56;;;;;;;6.20;5.50;;;;;;;13.39;83.04;100809.41;93140;1209;74769;-68
2021/07/11 02:36:10;;;;;;;6.50;4.70;;;;;;;13.42;83.06;100808.16;93156;1208;79796;-68
2021/07/11 02:38:20;;;;;;;7.10;4.90;;;;;;;13.45;83.13;100803.19;93163;1214;67018;-67
2021/07/11 02:40:28;;;;;;;9.10;5.90;;;;;;;13.45;83.21;100811.34;93150;1209;69261;-68
2021/07/11 02:42:36;;;;;;;6.30;4.90;;;;;;;13.49;83.04;100809.04;93130;1209;86724;-68
2021/07/11 02:44:51;;;;;;;5.90;4.80;;;;;;;13.55;83.05;100802.83;93161;1209;75178;-60
2021/07/11 02:47:07;;;;;;;7.70;4.60;;;;;;;13.62;83.13;100802.88;93166;1214;81596;-59
2021/07/11 02:49:19;;;;;;;8.20;4.80;;;;;;;13.67;83.05;100811.26;93149;1209;65584;-60
2021/07/11 02:51:35;;;;;;;7.60;5.10;;;;;;;13.71;83.09;100812.52;93165;1208;68830;-60
2021/07/11 02:53:47;;;;;;;7.00;4.80;;;;;;;13.67;82.92;100805.83;93206;1208;87875;-71
2021/07/11 02:55:59;;;;;;;7.70;5.30;;;;;;;13.60;83.01;100812.05;93088;1207;74894;-71
2021/07/11 02:58:14;;;;;;;8.90;5.30;;;;;;;13.64;83.04;100822.52;93133;1207;81832;-71
2021/07/11 03:00:23;;;;;;;5.90;4.80;;;;;;;13.67;82.98;100816.69;93126;1209;67797;-59
2021/07/11 03:02:31;;;;;;;8.00;5.00;;;;;;;13.69;82.93;100809.17;93113;1208;69103;-60
2021/07/11 03:04:42;;;;;;;5.90;5.40;;;;;;;13.73;83.11;100811.31;93128;1209;86215;-71
2021/07/11 03:06:53;;;;;;;7.50;5.10;;;;;;;13.77;82.93;100811.73;93157;1208;75358;-69
2021/07/11 03:09:02;;;;;;;5.60;4.90;;;;;;;13.75;82.90;100819.25;93058;1208;80641;-69
2021/07/11 03:11:11;;;;;;;7.70;5.10;;;;;;;13.80;82.93;100814.05;93152;1210;67565;-69
2021/07/11 03:13:21;;;;;;;5.40;4.90;;;;;;;13.87;83.12;100817.66;93210;1209;69417;-60
2021/07/11 03:15:33;;;;;;;5.40;4.90;;;;;;;13.91;82.85;100822.48;93049;1208;85838;-60
2021/07/11 03:17:43;;;;;;;8.10;4.90;;;;;;;13.96;82.83;100821.86;93124;1209;75883;-59
2021/07/11 03:19:56;;;;;;;6.20;4.80;;;;;;;13.98;82.97;100822.53;93121;1209;81568;-68
2021/07/11 03:22:06;;;;;;;5.70;4.70;;;;;;;14.01;82.92;100819.38;93051;1209;67419;-69
2021/07/11 03:24:14;;;;;;;7.10;4.90;;;;;;;14.10;83.03;100823.61;93197;1204;68806;-69
2021/07/11 03:26:23;;;;;;;6.50;4.70;;;;;;;14.18;83.11;100826.16;93148;1208;87128;-69
2021/07/11 03:28:35;;;;;;;6.80;5.20;;;;;;;14.28;83.21;100820.36;93198;1203;76177;-60
2021/07/11 03:30:47;;;;;;;5.40;4.90;;;;;;;14.35;83.02;100827.52;93154;1210;81954;-60
2021/07/11 03:33:00;;;;;;;7.30;5.30;;;;;;;14.49;83.01;100821.09;93166;1210;66762;-60
2021/07/11 03:35:12;;;;;;;6.30;4.90;;;;;;;14.60;83.22;100831.38;93156;1209;67880;-71
2021/07/11 03:37:25;;;;;;;6.50;5.40;;;;;;;14.77;83.19;100829.12;93101;1209;86617;-71
2021/07/11 03:39:38;;;;;;;7.10;5.30;;;;;;;15.12;83.14;100824.34;93143;1209;73775;-71
2021/07/11 03:41:50;;;;;;;7.00;4.80;;;;;;;16.06;82.42;100827.61;93153;1214;82383;-71
2021/07/11 03:44:01;;;;;;;6.10;5.40;;;;;;;16.94;81.00;100815.88;93144;1209;66667;-71
2021/07/11 03:46:12;;;;;;;7.60;4.80;;;;;;;17.80;80.40;100825.01;93142;1208;68149;-71
2021/07/11 03:48:25;;;;;;;8.30;4.80;;;;;;;18.89;79.54;100822.21;93233;1208;88201;-71
2021/07/11 03:50:34;;;;;;;5.10;4.60;;;;;;;19.75;78.53;100827.14;93154;1209;75460;-71
2021/07/11 03:52:53;;;;;;;6.50;4.70;;;;;;;20.57;77.87;100823.99;93085;1208;82391;-71
2021/07/11 03:55:02;;;;;;;5.70;4.50;;;;;;;21.52;77.32;100826.01;93157;1209;67085;-70
2021/07/11 03:57:11;;;;;;;6.60;4.60;;;;;;;22.37;76.52;100826.44;93153;1214;68640;-70
2021/07/11 03:59:20;;;;;;;5.60;4.10;;;;;;;23.01;74.51;100819.20;93190;1214;86769;-70
2021/07/11 04:01:31;;;;;;;6.80;4.10;;;;;;;23.65;73.39;100820.03;93152;1209;73924;-71
2021/07/11 04:03:44;;;;;;;7.80;4.50;;;;;;;24.28;71.99;100818.25;93185;1208;80392;-70
2021/07/11 04:05:54;;;;;;;6.10;4.70;;;;;;;24.77;70.43;100818.69;93137;1208;65876;-71
2021/07/11 04:08:03;;;;;;;5.70;4.00;;;;;;;25.28;68.57;100814.08;93196;1208;69803;-71
2021/07/11 04:10:17;;;;;;;5.80;4.20;;;;;;;25.60;67.75;100815.48;93188;1208;86640;-71
2021/07/11 04:12:24;;;;;;;5.80;4.50;;;;;;;25.83;66.70;100813.23;93193;1209;75782;-71
2021/07/11 04:14:33;;;;;;;6.20;4.10;;;;;;;26.15;65.88;100816.53;93184;1208;82559;-71
2021/07/11 04:16:42;;;;;;;6.30;4.00;;;;;;;26.19;64.84;100818.44;93150;1208;65154;-71
2021/07/11 04:18:54;;;;;;;9.80;4.20;;;;;;;26.41;64.35;100811.70;93139;1208;68922;-70
2021/07/11 04:21:06;;;;;;;4.80;4.10;;;;;;;26.57;63.48;100816.05;93160;1209;86830;-71
2021/07/11 04:23:18;;;;;;;6.00;4.10;;;;;;;26.85;63.04;100813.44;93203;1209;73975;-60
2021/07/11 04:25:30;;;;;;;5.70;4.50;;;;;;;27.16;62.14;100819.61;93180;1209;80001;-59
2021/07/11 04:27:39;;;;;;;7.50;4.40;;;;;;;27.37;60.98;100806.39;93131;1209;65210;-59
2021/07/11 04:29:52;;;;;;;11.70;7.30;;;;;;;27.78;59.82;100815.20;93164;1209;69265;-59
2021/07/11 04:32:00;;;;;;;8.80;6.00;;;;;;;28.31;59.27;100813.25;93098;1208;87489;-59
2021/07/11 04:34:27;;;;;;;10.90;6.70;;;;;;;28.47;57.88;100818.33;93169;1209;75326;-59
2021/07/11 04:36:35;;;;;;;8.80;7.70;;;;;;;28.63;57.21;100814.25;93167;1209;81104;-59
2021/07/11 04:38:43;;;;;;;9.90;6.90;;;;;;;28.98;56.29;100812.09;93162;1209;66250;-71
2021/07/11 04:40:51;;;;;;;9.10;7.20;;;;;;;29.42;55.57;100820.05;93156;1208;68860;-71
2021/07/11 04:42:59;;;;;;;7.80;7.00;;;;;;;29.57;55.64;100805.84;93187;1209;86510;-71
2021/07/11 04:45:09;;;;;;;7.80;6.40;;;;;;;29.63;54.86;100811.03;93148;1214;74190;-71
2021/07/11 04:47:17;;;;;;;10.40;6.70;;;;;;;29.63;54.10;100808.25;93147;1214;81049;-71
2021/07/11 04:49:25;;;;;;;5.90;5.40;;;;;;;29.90;53.55;100815.02;93150;1209;66824;-59
2021/07/11 04:51:34;;;;;;;5.70;4.90;;;;;;;30.40;53.40;100811.26;93110;1208;67618;-59
2021/07/11 04:53:42;;;;;;;5.00;4.50;;;;;;;30.67;51.65;100816.80;93144;1208;87313;-59
2021/07/11 04:55:54;;;;;;;6.30;5.40;;;;;;;30.88;50.98;100820.77;93174;1209;74472;-59
2021/07/11 04:58:02;;;;;;;4.90;4.50;;;;;;;31.10;49.33;100808.01;93155;1209;81183;-59
2021/07/11 05:00:15;;;;;;;5.80;5.20;;;;;;;31.02;49.08;100828.30;92950;1208;67079;-71
2021/07/11 05:02:24;;;;;;;;;;;;;;;31.04;48.38;100809.30;93182;1210;68853;-71
2021/07/11 05:04:31;;;;;;;5.30;4.90;;;;;;;31.70;48.46;100826.05;93180;1209;86724;-60
2021/07/11 05:06:39;;;;;;;6.40;4.50;;;;;;;32.08;47.97;100816.08;93187;1209;75393;-59
2021/07/11 05:08:47;;;;;;;4.60;4.20;;;;;;;32.22;47.42;100813.20;93160;1208;81628;-72
2021/07/11 05:10:55;;;;;;;4.50;4.10;;;;;;;32.47;46.77;100815.23;93193;1208;67346;-68
2021/07/11 05:13:02;;;;;;;5.10;4.60;;;;;;;33.04;45.85;100818.83;93179;1209;68582;-67
2021/07/11 05:15:12;;;;;;;4.10;3.70;;;;;;;33.24;44.94;100820.98;93190;1214;86640;-60
2021/07/11 05:17:21;;;;;;;4.90;4.50;;;;;;;32.93;44.06;100823.10;93144;1209;75292;-60
2021/07/11 05:19:28;;;;;;;4.30;3.90;;;;;;;32.80;42.46;100812.86;93185;1208;80563;-65
2021/07/11 05:21:36;;;;;;;4.20;3.90;;;;;;;33.05;43.88;100814.89;93155;1214;66734;-65
2021/07/11 05:23:47;;;;;;;4.10;3.70;;;;;;;33.40;43.47;100820.48;93127;1209;68045;-66
2021/07/11 05:25:57;;;;;;;3.60;3.30;;;;;;;33.72;41.52;100820.78;93155;1209;86717;-66
2021/07/11 05:28:07;;;;;;;5.40;3.50;;;;;;;33.92;41.66;100824.02;93146;1214;74128;-66
2021/07/11 05:30:18;;;;;;;3.70;3.30;;;;;;;33.76;40.74;100823.75;93152;1208;81544;-66
2021/07/11 05:32:26;;;;;;;3.80;3.50;;;;;;;33.79;40.78;100823.05;93076;1208;65518;-67
2021/07/11 05:34:33;;;;;;;6.60;3.70;;;;;;;34.22;40.43;100820.97;93182;1208;69729;-66
2021/07/11 05:36:41;;;;;;;5.60;3.90;;;;;;;34.47;39.52;100815.55;92963;1208;87976;-66
2021/07/11 05:38:49;;;;;;;6.10;3.40;;;;;;;34.38;39.26;100818.41;93164;1208;75376;-65
2021/07/11 05:40:57;;;;;;;3.50;3.20;;;;;;;34.27;38.54;100814.33;93147;1208;81604;-65
2021/07/11 05:43:05;;;;;;;3.80;2.90;;;;;;;34.10;39.07;100818.04;93139;1209;66819;-65
2021/07/11 05:45:14;;;;;;;3.10;2.60;;;;;;;33.84;38.79;100817.30;93128;1209;67874;-66
2021/07/11 05:47:22;;;;;;;4.20;2.70;;;;;;;33.78;38.34;100822.26;93147;1209;85263;-65
2021/07/11 05:49:29;;;;;;;2.60;2.40;;;;;;;33.84;39.44;100820.09;93170;1209;74378;-65
2021/07/11 05:51:37;;;;;;;2.80;2.20;;;;;;;33.93;38.12;100811.63;93155;1209;81210;-65
2021/07/11 05:53:45;;;;;;;4.20;2.50;;;;;;;33.92;38.67;100810.83;93192;1209;66386;-64
2021/07/11 05:55:55;;;;;;;2.40;2.20;;;;;;;33.84;37.89;100820.09;93197;1208;69879;-65
2021/07/11 05:58:07;;;;;;;2.70;2.20;;;;;;;34.06;37.60;100805.00;93154;1209;86589;-65
2021/07/11 06:00:17;;;;;;;2.50;2.30;;;;;;;34.16;38.00;100810.26;93155;1210;74900;-65
2021/07/11 06:02:27;;;;;;;2.40;1.90;;;;;;;34.25;36.61;100809.08;93173;1209;81660;-66
2021/07/11 06:04:34;;;;;;;2.20;2.00;;;;;;;34.06;35.89;100808.64;93188;1209;66529;-65
2021/07/11 06:06:42;;;;;;;2.50;2.20;;;;;;;34.16;37.47;100811.09;93209;1199;68943;-65
2021/07/11 06:08:50;;;;;;;3.10;2.30;;;;;;;34.07;35.38;100803.83;93164;1204;86268;-65
2021/07/11 06:10:57;;;;;;;2.50;2.10;;;;;;;34.47;36.60;100807.13;93144;1208;74928;-65
2021/07/11 06:13:09;;;;;;;2.10;1.70;;;;;;;35.06;36.52;100805.93;93144;1209;81974;-65
2021/07/11 06:15:17;;;;;;;3.50;1.90;;;;;;;35.22;35.14;100806.11;93105;1210;65752;-64
2021/07/11 06:17:26;;;;;;;1.80;1.60;;;;;;;35.24;35.43;100799.02;93167;1204;68805;-65
2021/07/11 06:19:33;;;;;;;3.70;2.00;;;;;;;35.48;35.08;100799.09;93169;1208;86258;-65
2021/07/11 06:21:41;;;;;;;2.60;2.00;;;;;;;35.46;34.56;100789.38;93157;1210;75091;-65
2021/07/11 06:23:48;;;;;;;2.50;1.90;;;;;;;35.35;34.74;100797.42;93155;1209;81149;-64
2021/07/11 06:25:56;;;;;;;4.70;1.80;;;;;;;35.32;34.35;100798.11;93189;1209;65282;-64
2021/07/11 06:28:08;;;;;;;2.10;1.70;;;;;;;35.36;35.29;100789.78;93118;1209;69602;-65
2021/07/11 06:30:20;;;;;;;3.20;1.90;;;;;;;35.59;34.69;100787.44;93166;1208;87274;-64
2021/07/11 06:32:27;;;;;;;1.80;1.70;;;;;;;36.03;33.40;100786.61;93158;1214;75687;-65
2021/07/11 06:34:35;;;;;;;2.50;2.00;;;;;;;35.96;33.51;100795.58;92951;1208;81749;-65
2021/07/11 06:36:42;;;;;;;2.80;2.00;;;;;;;35.98;31.43;100786.81;93189;1204;67505;-65
2021/07/11 06:38:53;;;;;;;1.90;1.70;;;;;;;35.83;32.50;100784.67;93150;1214;68942;-65
2021/07/11 06:41:01;;;;;;;2.50;1.80;;;;;;;35.98;33.53;100787.64;93183;1208;85960;-65
2021/07/11 06:43:09;;;;;;;2.70;1.80;;;;;;;36.44;32.28;100785.55;93175;1209;73843;-66
2021/07/11 06:45:18;;;;;;;1.80;1.70;;;;;;;35.95;31.39;100779.08;93163;1208;81376;-65
2021/07/11 06:47:26;;;;;;;2.80;1.90;;;;;;;34.64;32.91;100781.80;93149;1209;66134;-65
2021/07/11 06:49:34;;;;;;;1.90;1.70;;;;;;;34.18;33.95;100777.91;93187;1203;68906;-65
2021/07/11 06:51:42;;;;;;;3.90;1.90;;;;;;;34.28;33.52;100783.13;93108;1208;86906;-67
2021/07/11 06:53:49;;;;;;;2.90;1.80;;;;;;;34.32;33.72;100775.69;93174;1209;74209;-65
2021/07/11 06:55:57;;;;;;;2.30;2.00;;;;;;;34.37;33.50;100777.47;93180;1214;82569;-65
2021/07/11 06:58:08;;;;;;;2.60;2.40;;;;;;;34.78;33.46;100782.33;93062;1208;67311;-65
2021/07/11 07:00:20;;;;;;;2.60;1.50;;;;;;;35.41;33.74;100775.52;93176;1209;67730;-66
2021/07/11 07:02:28;;;;;;;2.00;1.70;;;;;;;36.18;32.37;100779.48;93200;1214;85438;-65
2021/07/11 07:04:36;;;;;;;1.90;1.70;;;;;;;36.31;31.69;100784.75;93145;1209;75131;-65
2021/07/11 07:06:43;;;;;;;2.40;2.20;;;;;;;36.42;32.25;100791.55;93180;1214;82422;-66
2021/07/11 07:08:51;;;;;;;2.80;2.10;;;;;;;36.43;31.80;100781.91;93147;1208;67168;-66
2021/07/11 07:10:58;;;;;;;3.40;2.30;;;;;;;36.08;32.24;100786.38;93162;1214;69530;-65
2021/07/11 07:13:09;;;;;;;2.10;1.90;;;;;;;35.87;30.28;100782.81;93184;1208;86793;-65
2021/07/11 07:15:17;;;;;;;1.80;1.50;;;;;;;35.57;32.26;100782.17;93177;1209;75947;-65
2021/07/11 07:17:25;;;;;;;1.70;1.60;;;;;;;35.69;31.06;100785.00;92942;1214;81339;-65
2021/07/11 07:19:35;;;;;;;2.00;1.70;;;;;;;35.66;31.61;100782.05;93102;1208;65618;-65
2021/07/11 07:21:43;;;;;;;4.10;1.70;;;;;;;35.28;31.13;100787.88;93138;1209;69366;-65
2021/07/11 07:23:51;;;;;;;1.90;1.70;;;;;;;34.81;32.13;100782.48;93136;1214;87423;-66
2021/07/11 07:26:02;;;;;;;2.80;1.70;;;;;;;35.33;32.80;100782.05;93184;1203;75412;-66
2021/07/11 07:28:11;;;;;;;2.40;1.60;;;;;;;35.92;31.38;100776.95;93184;1207;80142;-65
2021/07/11 07:30:20;;;;;;;3.20;1.40;;;;;;;36.05;31.25;100771.02;93136;1208;67304;-69
2021/07/11 07:32:28;;;;;;;1.70;1.40;;;;;;;35.85;31.40;100785.96;93144;1209;68744;-69
2021/07/11 07:34:36;;;;;;;1.60;1.40;;;;;;;36.18;29.73;100777.45;93123;1209;86908;-68
2021/07/11 07:36:47;;;;;;;1.60;1.40;;;;;;;36.08;30.76;100775.13;93142;1208;75175;-68
2021/07/11 07:38:55;;;;;;;2.50;1.70;;;;;;;36.48;30.53;100778.05;93115;1208;80283;-68
2021/07/11 07:41:02;;;;;;;2.30;1.80;;;;;;;35.89;30.56;100778.48;92922;1208;67295;-68
2021/07/11 07:43:19;;;;;;;4.90;1.50;;;;;;;36.27;30.70;100775.35;93170;1208;69717;-68
2021/07/11 07:45:28;;;;;;;2.50;2.30;;;;;;;35.22;30.25;100778.02;93202;1207;85816;-64
2021/07/11 07:47:39;;;;;;;2.40;1.70;;;;;;;34.33;31.37;100784.94;93171;1209;75216;-64
2021/07/11 07:49:46;;;;;;;2.20;1.50;;;;;;;33.09;32.72;100790.69;93133;1207;81879;-68
2021/07/11 07:51:54;;;;;;;1.80;1.50;;;;;;;33.09;34.15;100793.48;93164;1208;65796;-69
2021/07/11 07:54:04;;;;;;;1.90;1.70;;;;;;;33.76;33.85;100795.72;93150;1208;69303;-68
2021/07/11 07:56:12;;;;;;;2.20;2.00;;;;;;;33.27;33.91;100790.69;93064;1208;85664;-69
2021/07/11 07:58:20;;;;;;;2.10;1.90;;;;;;;33.45;34.26;100786.69;93205;1208;74471;-69
2021/07/11 08:00:28;;;;;;;2.10;1.90;;;;;;;33.86;34.81;100781.33;93189;1209;81720;-69
2021/07/11 08:02:37;;;;;;;2.40;1.80;;;;;;;35.10;33.75;100787.23;93179;1209;66614;-68
2021/07/11 08:04:44;;;;;;;3.40;2.00;;;;;;;35.79;32.23;100780.93;93185;1209;69641;-69
2021/07/11 08:06:52;;;;;;;2.80;1.70;;;;;;;36.21;32.08;100790.00;93162;1209;85733;-69
2021/07/11 08:09:00;;;;;;;1.70;1.60;;;;;;;36.92;32.06;100787.48;93160;1208;74529;-64
2021/07/11 08:11:08;;;;;;;2.40;2.10;;;;;;;37.04;30.89;100784.64;93133;1209;82343;-64
2021/07/11 08:13:16;;;;;;;3.10;1.90;;;;;;;36.96;31.13;100789.26;93130;1209;65467;-65
2021/07/11 08:15:27;;;;;;;4.40;2.70;;;;;;;37.08;31.36;100791.22;93160;1211;69406;-64
2021/07/11 08:17:34;;;;;;;2.50;2.30;;;;;;;37.45;29.95;100787.08;93168;1209;86417;-65
2021/07/11 08:19:45;;;;;;;2.60;2.40;;;;;;;37.47;30.78;100781.09;93167;1211;73705;-65
2021/07/11 08:21:54;;;;;;;5.10;4.50;;;;;;;37.64;29.81;100790.02;93160;1214;82075;-64
2021/07/11 08:24:02;;;;;;;3.30;2.90;;;;;;;37.58;29.49;100779.39;93156;1204;66592;-68
2021/07/11 08:26:12;;;;;;;3.50;2.80;;;;;;;37.69;29.95;100788.96;93159;1214;68535;-68
2021/07/11 08:28:23;;;;;;;4.10;2.70;;;;;;;37.92;28.97;100783.52;93178;1208;86321;-67
2021/07/11 08:30:31;;;;;;;3.30;2.80;;;;;;;37.92;30.43;100798.45;93133;1209;75894;-67
2021/07/11 08:32:39;;;;;;;4.20;2.30;;;;;;;37.46;29.35;100793.55;93148;1203;82447;-68
2021/07/11 08:34:46;;;;;;;2.00;1.50;;;;;;;37.41;28.59;100790.96;93140;1208;67313;-58
2021/07/11 08:36:59;;;;;;;3.50;1.80;;;;;;;36.85;29.72;100790.08;93081;1208;69135;-59
2021/07/11 08:39:10;;;;;;;2.50;2.30;;;;;;;36.00;30.33;100787.28;93194;1208;86915;-68
2021/07/11 08:41:18;;;;;;;1.80;1.70;;;;;;;35.95;30.26;100793.14;93168;1209;74496;-67
2021/07/11 08:43:28;;;;;;;1.60;1.50;;;;;;;35.79;30.57;100789.37;93181;1209;80703;-58
2021/07/11 08:45:40;;;;;;;1.90;1.70;;;;;;;35.74;30.53;100784.77;93171;1208;66685;-59
2021/07/11 08:47:48;;;;;;;2.90;1.30;;;;;;;35.65;30.41;100792.50;93161;1209;67996;-60
2021/07/11 08:49:55;;;;;;;1.70;1.50;;;;;;;35.24;30.40;100789.75;93177;1209;86857;-59
2021/07/11 08:52:05;;;;;;;2.70;1.70;;;;;;;34.42;30.96;100784.88;93151;1209;74296;-58
2021/07/11 08:54:15;;;;;;;3.10;2.30;;;;;;;34.61;32.83;100777.66;93169;1209;81397;-68
2021/07/11 08:56:27;;;;;;;2.30;2.00;;;;;;;34.55;31.83;100772.58;93151;1209;66084;-67
2021/07/11 08:58:35;;;;;;;2.50;1.40;;;;;;;33.42;33.34;100784.55;93207;1209;70427;-59
2021/07/11 09:00:43;;;;;;;2.20;1.30;;;;;;;33.24;33.65;100784.56;93127;1209;87632;-59
2021/07/11 09:02:51;;;;;;;1.70;1.20;;;;;;;33.13;33.84;100788.03;93171;1207;75233;-59
2021/07/11 09:04:58;;;;;;;2.20;1.50;;;;;;;32.81;34.79;100785.70;93131;1209;82521;-67
2021/07/11 09:07:07;;;;;;;1.30;1.10;;;;;;;32.81;34.14;100780.93;93162;1214;67162;-67
2021/07/11 09:09:26;;;;;;;2.00;1.20;;;;;;;33.07;35.13;100780.97;93198;1209;67861;-58
2021/07/11 09:11:49;;;;;;;2.60;1.80;;;;;;;33.70;34.25;100769.02;93204;1209;85777;-59
2021/07/11 09:13:56;;;;;;;3.00;2.10;;;;;;;34.30;33.81;100772.41;93144;1207;75111;-66
2021/07/11 09:16:05;;;;;;;3.20;1.60;;;;;;;34.46;33.16;100763.38;93187;1208;81065;-66
2021/07/11 09:18:14;;;;;;;1.90;1.30;;;;;;;34.11;32.96;100757.99;93171;1214;66332;-65
2021/07/11 09:20:22;;;;;;;1.60;1.30;;;;;;;33.14;34.68;100756.08;93180;1209;67585;-58
2021/07/11 09:22:30;;;;;;;4.70;2.30;;;;;;;32.88;34.25;100756.05;93159;1209;85922;-58
2021/07/11 09:24:47;;;;;;;2.00;1.60;;;;;;;32.45;34.69;100769.98;93154;1208;75917;-65
2021/07/11 09:27:11;;;;;;;2.00;1.50;;;;;;;32.05;35.45;100758.05;93130;1209;82617;-65
2021/07/11 09:29:28;;;;;;;2.80;1.40;;;;;;;31.61;36.51;100754.52;93163;1209;67281;-59
2021/07/11 09:31:39;;;;;;;3.20;1.90;;;;;;;31.54;37.47;100743.80;93169;1209;69408;-59
2021/07/11 09:33:55;;;;;;;3.30;2.40;;;;;;;31.68;36.87;100747.32;93163;1208;86753;-65
2021/07/11 09:36:22;;;;;;;4.00;1.60;;;;;;;31.54;37.86;100747.42;93154;1209;75986;-65
2021/07/11 09:38:33;;;;;;;1.40;1.30;;;;;;;30.69;36.92;100746.73;93139;1208;81046;-64
2021/07/11 09:40:43;;;;;;;3.00;1.20;;;;;;;30.34;39.06;100751.95;93127;1203;66902;-63
2021/07/11 09:42:56;;;;;;;2.70;1.20;;;;;;;30.27;38.82;100754.32;93196;1209;67781;-62
2021/07/11 09:45:17;;;;;;;2.10;1.30;;;;;;;30.62;40.11;100751.92;93205;1209;86885;-62
2021/07/11 09:47:31;;;;;;;1.60;1.40;;;;;;;30.53;39.02;100757.42;93164;1209;75644;-62
2021/07/11 09:49:41;;;;;;;1.70;1.50;;;;;;;30.48;38.75;100754.75;93151;1208;81504;-62
2021/07/11 09:51:49;;;;;;;1.70;1.40;;;;;;;30.47;39.15;100749.47;93152;1209;66687;-62
2021/07/11 09:54:10;;;;;;;1.90;1.60;;;;;;;29.91;39.27;100747.03;93187;1207;68664;-63
2021/07/11 09:56:36;;;;;;;1.30;1.20;;;;;;;29.36;40.37;100748.88;93161;1209;86829;-63
2021/07/11 09:58:58;;;;;;;2.10;1.60;;;;;;;29.37;41.78;100742.99;93134;1214;73496;-61
2021/07/11 10:01:05;;;;;;;2.30;1.60;;;;;;;29.30;40.76;100747.31;93166;1209;81473;-61
2021/07/11 10:03:18;;;;;;;4.00;1.60;;;;;;;29.04;41.53;100756.05;93163;1209;66324;-63
2021/07/11 10:05:27;;;;;;;2.50;1.50;;;;;;;29.02;41.24;100749.14;93172;1209;68203;-63